Ottauquechee River @ West Bridgewater, Vt

Ottauquechee River at W. Bridgewater
 Total Drainage Area: 23 sq. miles 
 Drainage Area Controlled by Corps Dams: 0 sq. miles (0%) 
 Warning Flow/Stage: ?? cfs / ?? feet 
 Flood Flow/Stage: ?? cfs / ?? feet 
Date Time
(Eastern)
Stage
(ft)
Flow
(cfs)
CSM
(cfs / sq. mi.)
Jun-25 12:30 am 3.35 28 1.2
Jun-24 11:30 pm 3.34 27 1.2
Jun-24 10:30 pm 3.31 25 1.1
Jun-24 09:30 pm 3.29 23 1.0
Jun-24 08:30 pm 3.28 22 1.0
Jun-24 07:30 pm 3.28 22 1.0
Jun-24 06:30 pm 3.28 22 1.0
Jun-24 05:30 pm 3.28 22 1.0
Jun-24 04:30 pm 3.28 22 1.0
Jun-24 03:30 pm 3.29 23 1.0
Jun-24 02:30 pm 3.30 24 1.0
Jun-24 01:30 pm 3.31 25 1.1
Jun-24 12:30 pm 3.33 26 1.2
Jun-24 11:30 am 3.34 27 1.2
Jun-24 10:30 am 3.35 28 1.2
Jun-24 09:30 am 3.37 30 1.3
Jun-24 08:30 am 3.39 32 1.4
Jun-24 07:30 am 3.41 34 1.5
Jun-24 06:30 am 3.43 36 1.6
Jun-24 05:30 am 3.46 39 1.7
Jun-24 04:30 am 3.47 40 1.7
Jun-24 03:30 am 3.46 39 1.7
Jun-24 02:30 am 3.44 37 1.6
Jun-24 01:30 am 3.44 37 1.6
Jun-24 12:30 am 3.47 40 1.7
Report Generated June 25, 2024 12:46 am